createdAt,value
2018-06-01T00:00:24.067Z,19.00
2018-06-01T00:02:51.728Z,19.00
2018-06-01T00:05:19.363Z,19.00
2018-06-01T00:07:47.047Z,19.00
2018-06-01T00:10:14.727Z,19.00
2018-06-01T00:12:42.353Z,19.00
2018-06-01T00:15:10.014Z,19.00
2018-06-01T00:17:37.666Z,19.00
2018-06-01T00:20:05.306Z,19.00
2018-06-01T00:22:33.734Z,19.00
2018-06-01T00:25:01.383Z,18.90
2018-06-01T00:27:29.010Z,18.90
2018-06-01T00:29:56.668Z,18.90
2018-06-01T00:32:25.111Z,19.00
2018-06-01T00:34:52.738Z,18.90
2018-06-01T00:37:20.395Z,19.00
2018-06-01T00:39:48.047Z,19.00
2018-06-01T00:42:15.671Z,19.00
2018-06-01T00:44:43.313Z,19.00
2018-06-01T00:47:11.743Z,19.00
2018-06-01T00:49:39.367Z,19.00
2018-06-01T00:52:07.024Z,19.00
2018-06-01T00:54:46.534Z,19.00
2018-06-01T00:57:14.191Z,19.00
2018-06-01T00:59:41.844Z,19.00
2018-06-01T01:02:10.239Z,18.90
2018-06-01T01:04:38.662Z,18.90
2018-06-01T01:07:06.323Z,18.90
2018-06-01T01:09:33.951Z,18.90
2018-06-01T01:12:01.655Z,18.90
2018-06-01T01:14:29.307Z,18.90
2018-06-01T01:16:57.743Z,18.80
2018-06-01T01:19:25.403Z,18.80
2018-06-01T01:21:53.067Z,18.80
2018-06-01T01:24:20.710Z,18.80
2018-06-01T01:26:48.367Z,18.80
2018-06-01T01:29:16.798Z,18.80
2018-06-01T01:31:44.422Z,18.70
2018-06-01T01:34:12.074Z,18.80
2018-06-01T01:36:39.726Z,18.70
2018-06-01T01:39:08.119Z,18.70
2018-06-01T01:56:19.728Z,18.60
2018-06-01T01:58:47.387Z,18.60
2018-06-01T02:01:15.051Z,18.50
2018-06-01T02:03:42.674Z,18.50
2018-06-01T02:06:11.093Z,18.50
2018-06-01T02:08:38.755Z,18.50
2018-06-01T02:11:06.386Z,18.50
2018-06-01T02:13:34.075Z,18.50
2018-06-01T02:16:01.743Z,18.50
2018-06-01T02:18:30.130Z,18.50
2018-06-01T02:20:58.575Z,18.40
2018-06-01T02:23:26.230Z,18.40
2018-06-01T02:25:54.629Z,18.40
2018-06-01T02:28:22.278Z,18.40
2018-06-01T02:30:49.936Z,18.30
2018-06-01T02:33:17.597Z,18.30
2018-06-01T02:35:45.255Z,18.30
2018-06-01T02:38:12.916Z,18.20
2018-06-01T02:40:40.535Z,18.20
2018-06-01T02:43:08.202Z,18.10
2018-06-01T02:45:35.867Z,18.10
2018-06-01T02:48:03.535Z,18.10
2018-06-01T02:50:31.955Z,18.00
2018-06-01T02:53:00.382Z,18.00
2018-06-01T02:55:28.008Z,17.90
2018-06-01T02:57:55.670Z,17.90
2018-06-01T03:00:23.332Z,17.90
2018-06-01T03:02:50.958Z,17.80
2018-06-01T03:05:18.643Z,17.80
2018-06-01T03:07:46.295Z,17.80
2018-06-01T03:10:14.691Z,17.70
2018-06-01T03:12:43.113Z,17.70
2018-06-01T03:15:10.766Z,17.70
2018-06-01T03:17:38.410Z,17.60
2018-06-01T03:20:06.066Z,17.60
2018-06-01T03:22:34.483Z,17.60
2018-06-01T03:25:02.235Z,17.60
2018-06-01T03:27:29.895Z,17.50
2018-06-01T03:29:57.549Z,17.50
2018-06-01T03:32:25.938Z,17.50
2018-06-01T03:34:53.593Z,17.50
2018-06-01T03:37:21.245Z,17.50
2018-06-01T03:39:48.874Z,17.50
2018-06-01T03:42:16.527Z,17.50
2018-06-01T03:44:44.947Z,17.50
2018-06-01T03:47:12.567Z,17.50
2018-06-01T03:49:40.232Z,17.50
2018-06-01T03:52:07.895Z,17.50
2018-06-01T03:54:35.516Z,17.50
2018-06-01T03:57:03.178Z,17.40
2018-06-01T03:59:30.826Z,17.40
2018-06-01T04:01:58.438Z,17.40
2018-06-01T04:04:26.086Z,17.40
2018-06-01T04:06:53.752Z,17.40
2018-06-01T04:09:21.443Z,17.40
2018-06-01T04:11:49.099Z,17.40
2018-06-01T04:14:16.754Z,17.40
2018-06-01T04:16:45.135Z,17.50
2018-06-01T04:19:12.878Z,17.40
2018-06-01T04:21:40.580Z,17.50
2018-06-01T04:24:08.207Z,17.50
2018-06-01T04:26:35.870Z,17.50
2018-06-01T04:29:03.567Z,17.40
2018-06-01T04:31:31.199Z,17.40
2018-06-01T04:33:58.863Z,17.40
2018-06-01T04:36:26.523Z,17.40
2018-06-01T04:38:54.139Z,17.40
2018-06-01T04:41:21.805Z,17.40
2018-06-01T04:43:49.459Z,17.40
2018-06-01T04:46:17.078Z,17.40
2018-06-01T04:48:44.731Z,17.40
2018-06-01T04:51:12.395Z,17.40
2018-06-01T04:56:38.575Z,17.40
2018-06-01T04:59:06.231Z,17.40
2018-06-01T05:01:33.912Z,17.40
2018-06-01T05:04:01.535Z,17.40
2018-06-01T05:06:29.211Z,17.50
2018-06-01T05:08:56.879Z,17.50
2018-06-01T05:11:24.509Z,17.50
2018-06-01T05:13:52.926Z,17.50
2018-06-01T05:16:21.346Z,17.50
2018-06-01T05:18:49.730Z,17.60
2018-06-01T05:21:17.394Z,17.50
2018-06-01T05:23:45.050Z,17.60
2018-06-01T05:26:12.669Z,17.60
2018-06-01T05:28:40.324Z,17.60
2018-06-01T05:31:07.989Z,17.70
2018-06-01T05:33:36.367Z,17.70
2018-06-01T05:36:04.060Z,17.70
2018-06-01T05:38:31.714Z,17.70
2018-06-01T05:40:59.480Z,17.70
2018-06-01T05:43:27.207Z,17.70
2018-06-01T05:45:54.894Z,17.70
2018-06-01T05:48:24.112Z,17.70
2018-06-01T05:50:51.776Z,17.70
2018-06-01T05:53:20.199Z,17.80
2018-06-01T05:55:47.827Z,17.80
2018-06-01T05:58:15.487Z,17.80
2018-06-01T06:00:43.653Z,17.80
2018-06-01T06:03:12.394Z,17.90
2018-06-01T06:05:40.107Z,17.90
2018-06-01T06:08:07.764Z,17.90
2018-06-01T06:10:35.387Z,18.00
2018-06-01T06:13:03.851Z,18.20
2018-06-01T06:15:31.515Z,18.10
2018-06-01T06:17:59.913Z,18.30
2018-06-01T06:20:27.578Z,18.30
2018-06-01T06:22:55.240Z,18.30
2018-06-01T06:25:22.871Z,18.40
2018-06-01T06:27:50.530Z,18.40
2018-06-01T06:30:18.967Z,18.60
2018-06-01T06:32:46.630Z,18.60
2018-06-01T06:35:14.290Z,18.70
2018-06-01T06:37:41.997Z,18.80
2018-06-01T06:40:09.605Z,18.80
2018-06-01T06:42:37.288Z,18.90
2018-06-01T06:45:05.016Z,18.90
2018-06-01T06:47:33.406Z,18.90
2018-06-01T06:50:01.064Z,18.90
2018-06-01T06:52:28.754Z,18.90
2018-06-01T06:54:56.384Z,18.90
2018-06-01T06:57:24.811Z,19.00
2018-06-01T06:59:53.229Z,19.00
2018-06-01T07:05:15.428Z,19.00
2018-06-01T07:07:44.037Z,19.00
2018-06-01T07:10:12.459Z,19.00
2018-06-01T07:12:40.088Z,18.90
2018-06-01T07:15:24.906Z,19.00
2018-06-01T07:17:53.429Z,18.90
2018-06-01T07:20:32.967Z,18.90
2018-06-01T07:23:00.621Z,18.90
2018-06-01T07:25:28.239Z,18.90
2018-06-01T07:27:55.988Z,18.90
2018-06-01T07:30:24.415Z,18.90
2018-06-01T07:32:53.210Z,18.90
2018-06-01T07:35:40.191Z,18.90
2018-06-01T07:38:07.943Z,18.90
2018-06-01T07:40:37.851Z,18.90
2018-06-01T07:43:06.258Z,18.90
2018-06-01T07:45:33.915Z,18.90
2018-06-01T07:48:02.303Z,18.90
2018-06-01T07:50:29.964Z,18.80
2018-06-01T07:52:57.624Z,18.80
2018-06-01T07:55:25.325Z,18.80
2018-06-01T07:57:53.069Z,18.80
2018-06-01T08:00:21.503Z,18.80
2018-06-01T08:02:49.155Z,18.80
2018-06-01T08:05:16.827Z,18.80
2018-06-01T08:07:49.771Z,18.80
2018-06-01T08:10:17.422Z,18.90
2018-06-01T08:12:45.079Z,18.90
2018-06-01T08:15:13.463Z,19.00
2018-06-01T08:17:41.122Z,19.00
2018-06-01T08:20:08.787Z,19.10
2018-06-01T08:22:36.410Z,19.10
2018-06-01T08:25:04.111Z,19.10
2018-06-01T08:27:31.781Z,19.10
2018-06-01T08:30:00.315Z,19.20
2018-06-01T08:32:28.020Z,19.20
2018-06-01T08:34:56.084Z,19.30
2018-06-01T08:37:23.710Z,19.30
2018-06-01T08:39:51.376Z,19.40
2018-06-01T08:42:19.051Z,19.50
2018-06-01T08:44:47.442Z,19.50
2018-06-01T08:47:15.103Z,19.50
2018-06-01T08:49:43.560Z,19.50
2018-06-01T08:52:11.192Z,19.50
2018-06-01T08:54:40.538Z,19.50
2018-06-01T08:57:08.195Z,19.50
2018-06-01T08:59:35.823Z,19.60
2018-06-01T09:02:03.551Z,19.60
2018-06-01T09:04:31.253Z,19.70
2018-06-01T09:06:59.167Z,19.80
2018-06-01T09:09:37.967Z,20.00
2018-06-01T09:12:07.364Z,20.10
2018-06-01T09:14:35.047Z,20.00
2018-06-01T09:17:03.348Z,20.10
2018-06-01T09:19:31.402Z,20.10
2018-06-01T09:21:59.983Z,20.10
2018-06-01T09:24:27.643Z,20.10
2018-06-01T09:26:55.264Z,20.20
2018-06-01T09:29:22.928Z,20.20
2018-06-01T09:31:50.582Z,20.30
2018-06-01T09:34:18.271Z,20.30
2018-06-01T09:36:46.694Z,20.40
2018-06-01T09:39:14.359Z,20.30
2018-06-01T09:41:42.743Z,20.40
2018-06-01T09:44:10.399Z,20.40
2018-06-01T09:46:38.127Z,20.40
2018-06-01T09:49:05.717Z,20.40
2018-06-01T09:51:34.147Z,20.50
2018-06-01T09:54:01.807Z,20.50
2018-06-01T09:56:29.434Z,20.50
2018-06-01T10:04:47.907Z,20.70
2018-06-01T10:07:15.580Z,20.80
2018-06-01T10:09:43.251Z,20.90
2018-06-01T10:12:11.675Z,20.90
2018-06-01T10:14:39.332Z,20.90
2018-06-01T10:17:07.780Z,20.90
2018-06-01T10:19:35.419Z,20.90
2018-06-01T10:22:03.083Z,20.90
2018-06-01T10:24:30.698Z,20.90
2018-06-01T10:26:59.147Z,21.00
2018-06-01T10:29:26.810Z,21.00
2018-06-01T10:31:54.426Z,21.10
2018-06-01T10:34:22.158Z,21.10
2018-06-01T10:36:49.828Z,21.20
2018-06-01T10:39:17.455Z,21.20
2018-06-01T10:41:45.571Z,21.20
2018-06-01T10:44:13.967Z,21.30
2018-06-01T10:46:42.397Z,21.40
2018-06-01T10:49:10.015Z,21.40
2018-06-01T10:51:37.676Z,21.40
2018-06-01T10:54:05.326Z,21.50
2018-06-01T10:56:33.099Z,21.50
2018-06-01T10:59:00.783Z,21.50
2018-06-01T11:01:28.408Z,21.60
2018-06-01T11:03:56.832Z,21.90
2018-06-01T11:06:24.468Z,21.80
2018-06-01T11:08:52.126Z,22.00
2018-06-01T11:11:19.787Z,22.00
2018-06-01T11:13:48.195Z,22.00
2018-06-01T11:16:17.078Z,22.00
2018-06-01T11:18:44.703Z,22.10
2018-06-01T11:21:12.358Z,22.10
2018-06-01T11:23:41.154Z,22.10
2018-06-01T11:26:08.819Z,22.20
2018-06-01T11:28:36.515Z,22.30
2018-06-01T11:31:04.134Z,22.30
2018-06-01T11:33:31.791Z,22.30
2018-06-01T11:35:59.403Z,22.30
2018-06-01T11:38:27.094Z,22.40
2018-06-01T11:40:54.734Z,22.40
2018-06-01T11:43:23.128Z,22.50
2018-06-01T11:45:50.778Z,22.50
2018-06-01T11:48:18.407Z,22.50
2018-06-01T11:50:46.066Z,22.50
2018-06-01T11:53:13.691Z,22.50
2018-06-01T11:55:41.354Z,22.50
2018-06-01T11:58:09.010Z,22.50
2018-06-01T12:00:36.714Z,22.50
2018-06-01T12:03:04.399Z,22.60
2018-06-01T12:05:32.034Z,22.70
2018-06-01T12:08:00.600Z,23.00
2018-06-01T12:10:28.278Z,23.00
2018-06-01T12:12:56.668Z,23.30
2018-06-01T12:15:24.335Z,23.30
2018-06-01T12:17:51.964Z,23.50
2018-06-01T12:20:19.651Z,23.70
2018-06-01T12:22:47.286Z,24.00
2018-06-01T12:25:15.302Z,24.10
2018-06-01T12:27:43.047Z,24.30
2018-06-01T12:30:10.690Z,24.50
2018-06-01T12:32:38.351Z,24.60
2018-06-01T12:35:05.978Z,24.80
2018-06-01T12:37:33.612Z,25.00
2018-06-01T12:40:01.287Z,25.10
2018-06-01T12:42:28.938Z,25.20
2018-06-01T12:44:57.363Z,25.30
2018-06-01T12:47:25.011Z,25.30
2018-06-01T12:49:52.635Z,25.20
2018-06-01T12:52:21.054Z,25.20
2018-06-01T12:54:48.670Z,25.20
2018-06-01T12:57:17.091Z,25.00
2018-06-01T12:59:44.746Z,25.00
2018-06-01T13:02:12.368Z,24.90
2018-06-01T13:04:40.394Z,24.60
2018-06-01T13:07:08.167Z,24.60
2018-06-01T13:09:35.900Z,24.60
2018-06-01T13:12:03.626Z,24.50
2018-06-01T13:14:32.086Z,24.50
2018-06-01T13:16:59.914Z,24.50
2018-06-01T13:19:27.583Z,24.60
2018-06-01T13:21:55.238Z,24.70
2018-06-01T13:24:23.284Z,24.60
2018-06-01T13:26:50.947Z,24.60
2018-06-01T13:29:19.451Z,24.60
2018-06-01T13:31:47.840Z,24.70
2018-06-01T13:34:15.502Z,24.60
2018-06-01T13:36:43.172Z,24.60
2018-06-01T13:39:11.101Z,24.70
2018-06-01T13:41:38.971Z,24.90
2018-06-01T13:44:06.636Z,25.00
2018-06-01T13:46:34.403Z,25.10
2018-06-01T13:52:14.735Z,25.40
2018-06-01T13:54:43.155Z,25.60
2018-06-01T13:57:10.812Z,25.50
2018-06-01T13:59:39.225Z,25.80
2018-06-01T14:02:07.670Z,25.90
2018-06-01T14:04:35.290Z,25.80
2018-06-01T14:07:10.259Z,25.90
2018-06-01T14:09:37.879Z,26.00
2018-06-01T14:12:06.594Z,26.10
2018-06-01T14:14:34.214Z,26.10
2018-06-01T14:17:03.097Z,26.10
2018-06-01T14:19:31.482Z,26.20
2018-06-01T14:21:59.148Z,26.10
2018-06-01T14:24:26.794Z,26.10
2018-06-01T14:26:55.306Z,26.00
2018-06-01T14:29:22.968Z,25.90
2018-06-01T14:31:50.599Z,25.90
2018-06-01T14:34:18.268Z,26.00
2018-06-01T14:36:46.910Z,25.90
2018-06-01T14:39:14.623Z,25.90
2018-06-01T14:41:42.281Z,25.90
2018-06-01T14:44:09.947Z,25.90
2018-06-01T14:46:38.366Z,26.00
2018-06-01T14:55:06.511Z,26.00
2018-06-01T14:57:34.137Z,26.00
2018-06-01T15:00:02.584Z,25.80
2018-06-01T15:02:30.246Z,25.80
2018-06-01T15:04:57.949Z,25.70
2018-06-01T15:07:26.375Z,25.70
2018-06-01T15:09:53.995Z,25.70
2018-06-01T15:12:21.691Z,25.80
2018-06-01T15:14:49.444Z,25.80
2018-06-01T15:17:17.859Z,25.70
2018-06-01T15:19:45.511Z,25.70
2018-06-01T15:22:13.131Z,25.60
2018-06-01T15:24:41.571Z,25.50
2018-06-01T15:27:09.194Z,25.50
2018-06-01T15:29:36.861Z,25.40
2018-06-01T15:40:44.216Z,25.20
2018-06-01T15:43:12.651Z,25.30
2018-06-01T15:45:40.315Z,25.20
2018-06-01T15:48:07.938Z,25.20
2018-06-01T15:50:35.603Z,25.30
2018-06-01T15:53:03.219Z,25.30
2018-06-01T15:55:30.879Z,25.30
2018-06-01T15:57:58.501Z,25.30
2018-06-01T16:03:20.570Z,25.20
2018-06-01T16:05:48.567Z,25.10
2018-06-01T16:08:17.974Z,25.00
2018-06-01T16:10:45.602Z,25.00
2018-06-01T16:13:13.559Z,25.00
2018-06-01T16:47:29.082Z,24.70
2018-06-01T16:49:56.752Z,24.60
2018-06-01T16:52:24.375Z,24.60
2018-06-01T16:54:52.035Z,24.50
2018-06-01T16:57:19.686Z,24.50
2018-06-01T16:59:47.302Z,24.50
2018-06-01T17:02:14.978Z,24.40
2018-06-01T17:04:42.642Z,24.40
2018-06-01T17:07:10.274Z,24.30
2018-06-01T17:09:37.947Z,24.30
2018-06-01T17:12:05.628Z,24.20
2018-06-01T17:14:33.263Z,24.20
2018-06-01T17:17:01.684Z,24.20
2018-06-01T17:19:29.343Z,24.20
2018-06-01T17:21:57.783Z,24.10
2018-06-01T17:24:25.437Z,24.10
2018-06-01T17:26:53.854Z,24.00
2018-06-01T17:29:22.238Z,24.00
2018-06-01T17:31:49.986Z,24.00
2018-06-01T17:34:20.108Z,24.00
2018-06-01T17:39:55.804Z,23.90
2018-06-01T17:42:24.279Z,23.80
2018-06-01T17:44:51.947Z,23.70
2018-06-01T17:47:19.571Z,23.70
2018-06-01T17:49:47.222Z,23.60
2018-06-01T17:52:14.899Z,23.60
2018-06-01T17:54:42.573Z,23.60
2018-06-01T17:57:10.999Z,23.60
2018-06-01T17:59:38.659Z,23.50
2018-06-01T18:02:06.284Z,23.50
2018-06-01T18:04:33.943Z,23.50
2018-06-01T18:07:02.405Z,23.40
2018-06-01T18:09:30.854Z,23.40
2018-06-01T18:11:59.559Z,23.30
2018-06-01T18:14:27.903Z,23.30
2018-06-01T18:16:55.527Z,23.20
2018-06-01T18:19:23.207Z,23.20
2018-06-01T18:21:51.391Z,23.10
2018-06-01T18:24:19.010Z,23.10
2018-06-01T18:26:46.667Z,23.00
2018-06-01T18:29:14.332Z,22.90
2018-06-01T18:31:41.985Z,22.90
2018-06-01T18:34:17.199Z,22.70
2018-06-01T18:36:46.024Z,22.60
2018-06-01T18:39:14.414Z,22.50
2018-06-01T18:41:42.851Z,22.50
2018-06-01T18:44:10.502Z,22.50
2018-06-01T18:46:38.999Z,22.30
2018-06-01T18:49:06.772Z,22.30
2018-06-01T18:51:34.438Z,22.30
2018-06-01T18:54:02.064Z,22.20
2018-06-01T18:56:29.722Z,22.10
2018-06-01T18:58:57.593Z,22.10
2018-06-01T19:01:25.218Z,22.00
2018-06-01T19:03:52.921Z,21.90
2018-06-01T19:06:21.352Z,21.70
2018-06-01T19:08:48.990Z,21.70
2018-06-01T19:11:17.660Z,21.60
2018-06-01T19:13:45.315Z,21.50
2018-06-01T19:16:14.944Z,21.40
2018-06-01T19:18:42.619Z,21.40
2018-06-01T19:21:10.483Z,21.30
2018-06-01T19:23:38.135Z,21.20
2018-06-01T19:26:07.506Z,21.20
2018-06-01T19:28:35.193Z,21.10
2018-06-01T19:31:02.831Z,21.10
2018-06-01T19:33:31.474Z,21.00
2018-06-01T19:35:59.135Z,20.90
2018-06-01T19:38:39.111Z,20.80
2018-06-01T19:41:26.984Z,20.80
2018-06-01T19:44:00.496Z,20.70
2018-06-01T19:46:28.980Z,20.60
2018-06-01T19:48:56.630Z,20.60
2018-06-01T19:51:24.306Z,20.50
2018-06-01T19:56:47.109Z,20.40
2018-06-01T19:59:15.555Z,20.30
2018-06-01T20:01:43.171Z,20.30
2018-06-01T20:04:10.915Z,20.20
2018-06-01T20:06:38.566Z,20.20
2018-06-01T20:09:06.245Z,20.10
2018-06-01T20:11:33.895Z,20.10
2018-06-01T20:14:02.490Z,20.00
2018-06-01T20:16:30.884Z,20.00
2018-06-01T20:18:58.531Z,20.00
2018-06-01T20:21:27.375Z,19.90
2018-06-01T20:23:58.202Z,19.80
2018-06-01T20:26:28.190Z,19.80
2018-06-01T20:43:36.408Z,19.40
2018-06-01T20:46:04.083Z,19.40
2018-06-01T20:48:32.850Z,19.30
2018-06-01T20:51:00.595Z,19.30
2018-06-01T20:53:28.994Z,19.20
2018-06-01T20:55:57.412Z,19.20
2018-06-01T20:58:25.039Z,19.10
2018-06-01T21:00:52.703Z,19.10
2018-06-01T21:03:20.362Z,19.10
2018-06-01T21:11:36.659Z,18.90
2018-06-01T21:14:04.323Z,18.90
2018-06-01T21:16:31.953Z,18.90
2018-06-01T21:18:59.611Z,18.80
2018-06-01T21:21:27.360Z,18.80
2018-06-01T21:23:54.959Z,18.70
2018-06-01T21:26:22.615Z,18.70
2018-06-01T21:28:50.262Z,18.70
2018-06-01T21:31:17.896Z,18.70
2018-06-01T21:33:46.333Z,18.60
2018-06-01T21:36:13.990Z,18.60
2018-06-01T21:38:42.897Z,18.50
2018-06-01T21:41:11.400Z,18.50
2018-06-01T21:43:39.846Z,18.50
2018-06-01T21:46:08.459Z,18.40
2018-06-01T21:48:36.305Z,18.40
2018-06-01T21:51:04.183Z,18.40
2018-06-01T21:53:31.807Z,18.40
2018-06-01T21:55:59.467Z,18.30
2018-06-01T21:58:28.891Z,18.30
2018-06-01T22:00:56.517Z,18.20
2018-06-01T22:03:24.243Z,18.20
2018-06-01T22:05:51.918Z,18.20
2018-06-01T22:08:20.650Z,18.20
2018-06-01T22:10:48.484Z,18.10
2018-06-01T22:13:16.187Z,18.10
2018-06-01T22:15:43.806Z,18.00
2018-06-01T22:24:11.682Z,17.90
2018-06-01T22:26:39.342Z,17.90
2018-06-01T22:29:06.982Z,17.90
2018-06-01T22:31:34.650Z,17.80
2018-06-01T22:34:02.311Z,17.80
2018-06-01T22:36:29.932Z,17.80
2018-06-01T22:38:57.591Z,17.70
2018-06-01T22:41:25.246Z,17.70
2018-06-01T22:43:53.626Z,17.70
2018-06-01T22:46:21.299Z,17.70
2018-06-01T22:48:51.959Z,17.70
2018-06-01T22:51:19.573Z,17.70
2018-06-01T22:53:47.997Z,17.60
2018-06-01T22:56:15.668Z,17.50
2018-06-01T22:58:44.059Z,17.50
2018-06-01T23:01:11.711Z,17.50
2018-06-01T23:03:39.362Z,17.50
2018-06-01T23:06:06.988Z,17.40
2018-06-01T23:17:27.162Z,17.30
2018-06-01T23:19:54.930Z,17.30
2018-06-01T23:22:23.310Z,17.30
2018-06-01T23:24:51.884Z,17.30
2018-06-01T23:27:19.542Z,17.20
2018-06-01T23:29:47.199Z,17.20
2018-06-01T23:32:14.819Z,17.20
2018-06-01T23:34:42.515Z,17.20
2018-06-01T23:37:10.172Z,17.20
2018-06-01T23:39:37.798Z,17.20
2018-06-01T23:42:05.454Z,17.20
2018-06-01T23:44:33.118Z,17.10
2018-06-01T23:47:01.498Z,17.10
2018-06-01T23:49:29.151Z,17.10
2018-06-01T23:51:56.804Z,17.10
2018-06-01T23:54:25.990Z,17.10
2018-06-01T23:56:53.667Z,17.00
2018-06-01T23:59:21.328Z,17.00
